Time;durP1;ratioP1;P1;durP2;ratioP2;P2;SDS_P1;SDS_P2;PMS_P1;PMS_P2;Temp;Humidity;BMP_temperature;BMP_pressure;BME280_temperature;BME280_humidity;BME280_pressure;Samples;Min_cycle;Max_cycle;Signal;HPM_P1;HPM_P2
2023/07/20 00:00:18;;;;;;;6.18;2.25;;;21.60;99.90;;;;;;4182981;28;20083;-55
2023/07/20 00:02:38;;;;;;;4.63;2.67;;;21.60;99.90;;;;;;4183458;28;20088;-56
2023/07/20 00:04:58;;;;;;;5.85;1.30;;;21.70;99.90;;;;;;4182566;28;20052;-55
2023/07/20 00:07:18;;;;;;;4.93;1.70;;;21.60;99.90;;;;;;4182688;28;20236;-55
2023/07/20 00:09:38;;;;;;;4.20;2.05;;;21.50;99.90;;;;;;4178762;28;20082;-55
2023/07/20 00:12:00;;;;;;;6.75;2.10;;;21.40;99.90;;;;;;4182201;28;20071;-55
2023/07/20 00:14:19;;;;;;;7.38;1.88;;;21.50;99.90;;;;;;4183711;28;20124;-55
2023/07/20 00:16:39;;;;;;;7.85;2.08;;;21.40;99.90;;;;;;4184900;28;20363;-58
2023/07/20 00:19:00;;;;;;;4.72;1.88;;;21.50;99.90;;;;;;4185254;28;20045;-57
2023/07/20 00:21:19;;;;;;;4.65;2.08;;;21.40;99.90;;;;;;4186141;28;20052;-58
2023/07/20 00:23:39;;;;;;;2.80;1.63;;;21.30;99.90;;;;;;4183835;28;20450;-58
2023/07/20 00:25:59;;;;;;;3.08;2.42;;;21.30;99.90;;;;;;4182966;28;20082;-58
2023/07/20 00:28:20;;;;;;;8.85;2.08;;;21.30;99.90;;;;;;4182000;28;20112;-57
2023/07/20 00:30:40;;;;;;;7.38;1.98;;;21.40;99.90;;;;;;4185370;28;20048;-58
2023/07/20 00:33:00;;;;;;;9.63;2.67;;;21.30;99.90;;;;;;4185943;28;20044;-57
2023/07/20 00:35:21;;;;;;;4.25;2.15;;;21.50;99.90;;;;;;4186977;28;20044;-58
2023/07/20 00:37:41;;;;;;;9.20;2.58;;;21.20;99.90;;;;;;4179996;28;20140;-58
2023/07/20 00:40:04;;;;;;;5.20;2.92;;;21.00;99.90;;;;;;4182235;28;20047;-58
2023/07/20 00:42:23;;;;;;;;;;;21.00;99.90;;;;;;4183498;28;20244;-57
2023/07/20 00:44:43;;;;;;;5.68;2.10;;;21.00;99.90;;;;;;4181817;28;20131;-58
2023/07/20 00:47:04;;;;;;;14.05;2.40;;;20.90;99.90;;;;;;4181008;28;20056;-58
2023/07/20 00:49:24;;;;;;;6.47;2.10;;;21.00;99.90;;;;;;4185271;28;20063;-57
2023/07/20 00:51:44;;;;;;;7.32;2.13;;;21.10;99.90;;;;;;4184814;28;20035;-58
2023/07/20 00:54:05;;;;;;;6.10;2.42;;;21.10;99.90;;;;;;4183459;28;20126;-58
2023/07/20 00:56:25;;;;;;;2.95;2.25;;;21.20;99.90;;;;;;4184106;28;20088;-58
2023/07/20 00:58:46;;;;;;;5.90;2.33;;;20.70;99.90;;;;;;4183470;28;20067;-58
2023/07/20 01:01:06;;;;;;;7.38;2.42;;;20.80;99.90;;;;;;4182289;28;20048;-58
2023/07/20 01:03:29;;;;;;;;;;;20.70;99.90;;;;;;4181963;28;20091;-58
2023/07/20 01:06:09;;;;;;;3.72;2.60;;;20.80;99.90;;;;;;4182633;28;19923;-58
2023/07/20 01:08:54;;;;;;;6.88;2.88;;;20.70;99.90;;;;;;4182206;28;20131;-58
2023/07/20 01:11:29;;;;;;;5.97;2.40;;;20.60;99.90;;;;;;4181734;28;20047;-58
2023/07/20 01:13:50;;;;;;;2.50;2.17;;;20.60;99.90;;;;;;4175775;28;20087;-58
2023/07/20 01:16:10;;;;;;;10.43;2.53;;;20.70;99.90;;;;;;4181329;28;20091;-58
2023/07/20 01:18:30;;;;;;;6.80;2.28;;;20.30;99.90;;;;;;4182296;28;20080;-58
2023/07/20 01:20:50;;;;;;;11.52;2.67;;;20.50;99.90;;;;;;4183526;28;20060;-58
2023/07/20 01:23:22;;;;;;;5.57;2.33;;;20.50;99.90;;;;;;4184636;28;20272;-59
2023/07/20 01:26:21;;;;;;;8.02;2.65;;;20.40;99.90;;;;;;4184642;28;20076;-58
2023/07/20 01:29:11;;;;;;;3.30;2.63;;;20.10;99.90;;;;;;4177040;28;20121;-58
2023/07/20 01:31:34;;;;;;;5.93;2.70;;;20.10;99.90;;;;;;4182682;28;20240;-57
2023/07/20 01:33:57;;;;;;;4.18;2.50;;;20.30;99.90;;;;;;4183555;28;20071;-57
2023/07/20 01:36:19;;;;;;;11.35;3.42;;;20.00;99.90;;;;;;4185726;28;20080;-58
2023/07/20 01:38:41;;;;;;;6.43;1.73;;;20.10;99.90;;;;;;4185742;28;20374;-58
2023/07/20 01:41:02;;;;;;;3.63;2.08;;;20.10;99.90;;;;;;4184911;28;20053;-57
2023/07/20 01:43:22;;;;;;;7.78;2.67;;;20.20;99.90;;;;;;4179094;28;20079;-58
2023/07/20 01:45:43;;;;;;;12.45;2.83;;;20.20;99.90;;;;;;4177442;28;20044;-57
2023/07/20 01:48:04;;;;;;;5.80;2.50;;;20.20;99.90;;;;;;4180727;28;20056;-57
2023/07/20 01:50:24;;;;;;;5.43;2.17;;;20.30;99.90;;;;;;4177949;28;20060;-57
2023/07/20 01:52:44;;;;;;;7.20;3.33;;;20.30;99.90;;;;;;4183710;28;20044;-58
2023/07/20 01:55:05;;;;;;;3.72;1.80;;;20.40;99.90;;;;;;4187227;28;20056;-58
2023/07/20 01:57:25;;;;;;;4.53;1.83;;;20.30;99.90;;;;;;4185715;28;20271;-58
2023/07/20 01:59:45;;;;;;;5.78;2.85;;;20.30;99.90;;;;;;4188361;28;20105;-57
2023/07/20 02:02:05;;;;;;;5.00;1.98;;;20.30;99.90;;;;;;4187330;28;20130;-58
2023/07/20 02:04:25;;;;;;;6.88;2.13;;;20.10;99.90;;;;;;4186193;28;20044;-58
2023/07/20 02:06:46;;;;;;;5.15;1.75;;;20.10;99.90;;;;;;4183944;28;20052;-58
2023/07/20 02:09:06;;;;;;;3.55;2.38;;;19.90;99.90;;;;;;4184206;28;20412;-58
2023/07/20 02:11:26;;;;;;;8.25;2.55;;;20.10;99.90;;;;;;4184561;28;20075;-58
2023/07/20 02:13:47;;;;;;;9.27;2.33;;;20.10;99.90;;;;;;4184283;28;20048;-58
2023/07/20 02:16:07;;;;;;;5.30;2.83;;;20.00;99.90;;;;;;4182646;28;20432;-58
2023/07/20 02:18:27;;;;;;;5.68;2.55;;;20.00;99.90;;;;;;4179940;28;20048;-58
2023/07/20 02:20:47;;;;;;;5.60;2.47;;;20.00;99.90;;;;;;4182504;28;20048;-58
2023/07/20 02:23:08;;;;;;;3.17;2.13;;;20.20;99.90;;;;;;4184582;28;20052;-58
2023/07/20 02:25:27;;;;;;;7.90;2.08;;;20.20;99.90;;;;;;4186984;28;20055;-58
2023/07/20 02:27:48;;;;;;;3.38;1.77;;;20.00;99.90;;;;;;4186187;28;20079;-58
2023/07/20 02:30:09;;;;;;;6.97;1.70;;;20.00;99.90;;;;;;4184609;28;20087;-57
2023/07/20 02:32:30;;;;;;;5.88;2.95;;;19.80;99.90;;;;;;4185123;28;20099;-58
2023/07/20 02:34:50;;;;;;;3.90;2.17;;;19.90;99.90;;;;;;4186371;28;20056;-58
2023/07/20 02:37:12;;;;;;;4.25;2.00;;;19.90;99.90;;;;;;4186370;28;20044;-58
2023/07/20 02:39:32;;;;;;;5.32;2.28;;;19.90;99.90;;;;;;4185912;28;20270;-58
2023/07/20 02:41:52;;;;;;;9.15;2.78;;;20.00;99.90;;;;;;4187898;28;20101;-58
2023/07/20 02:44:14;;;;;;;8.07;3.35;;;20.00;99.90;;;;;;4188285;28;20450;-58
2023/07/20 02:46:35;;;;;;;6.80;2.08;;;19.90;99.90;;;;;;4182805;28;20083;-58
2023/07/20 02:48:55;;;;;;;7.03;2.53;;;19.90;99.90;;;;;;4179836;28;20060;-57
2023/07/20 02:51:15;;;;;;;5.43;2.45;;;19.80;99.90;;;;;;4178555;28;20052;-57
2023/07/20 02:53:35;;;;;;;3.45;3.10;;;19.70;99.90;;;;;;4180381;28;20094;-57
2023/07/20 02:55:55;;;;;;;5.85;2.92;;;19.60;99.90;;;;;;4181895;28;20414;-57
2023/07/20 02:58:16;;;;;;;4.00;2.22;;;19.40;99.90;;;;;;4180620;28;20080;-57
2023/07/20 03:00:36;;;;;;;4.25;2.70;;;19.30;99.90;;;;;;4182689;28;20295;-58
2023/07/20 03:02:56;;;;;;;3.42;2.55;;;19.40;99.90;;;;;;4183739;28;20080;-57
2023/07/20 03:05:16;;;;;;;4.30;2.13;;;19.50;99.90;;;;;;4185223;28;20048;-57
2023/07/20 03:07:36;;;;;;;5.65;2.85;;;19.50;99.90;;;;;;4186608;28;20104;-58
2023/07/20 03:09:56;;;;;;;4.97;3.30;;;19.40;99.90;;;;;;4184733;28;20108;-58
2023/07/20 03:12:16;;;;;;;5.32;2.47;;;19.10;99.90;;;;;;4184667;28;20053;-58
2023/07/20 03:14:36;;;;;;;7.55;3.05;;;19.00;99.90;;;;;;4182987;28;20048;-58
2023/07/20 03:16:57;;;;;;;3.25;2.63;;;18.90;99.90;;;;;;4183305;28;20048;-58
2023/07/20 03:19:17;;;;;;;11.75;3.13;;;18.80;99.90;;;;;;4183224;28;20052;-57
2023/07/20 03:21:40;;;;;;;5.30;3.80;;;19.20;99.90;;;;;;4179411;28;20079;-57
2023/07/20 03:24:00;;;;;;;7.70;2.35;;;19.10;99.90;;;;;;4178161;28;20382;-58
2023/07/20 03:26:20;;;;;;;7.28;2.78;;;19.10;99.90;;;;;;4184224;28;20095;-58
2023/07/20 03:28:41;;;;;;;6.85;3.55;;;19.10;99.90;;;;;;4183426;28;20083;-58
2023/07/20 03:31:01;;;;;;;3.97;2.28;;;18.90;99.90;;;;;;4185296;28;20236;-57
2023/07/20 03:33:29;;;;;;;10.68;2.83;;;18.80;99.90;;;;;;4185844;28;20082;-57
2023/07/20 03:35:49;;;;;;;6.20;2.22;;;19.00;99.90;;;;;;4183443;28;20116;-58
2023/07/20 03:38:08;;;;;;;3.55;2.50;;;19.10;99.90;;;;;;4184531;28;20071;-58
2023/07/20 03:40:28;;;;;;;5.57;2.75;;;19.00;99.90;;;;;;4185051;28;20244;-57
2023/07/20 03:42:48;;;;;;;7.55;3.03;;;19.10;99.90;;;;;;4185071;28;20079;-58
2023/07/20 03:45:09;;;;;;;7.85;2.60;;;19.30;99.90;;;;;;4186452;28;20075;-57
2023/07/20 03:47:29;;;;;;;5.30;3.15;;;19.20;99.90;;;;;;4186211;28;20047;-58
2023/07/20 03:49:49;;;;;;;9.23;3.72;;;19.10;99.90;;;;;;4186532;28;20044;-58
2023/07/20 03:52:09;;;;;;;8.38;2.83;;;19.10;99.90;;;;;;4182357;28;20084;-57
2023/07/20 03:54:29;;;;;;;6.25;2.75;;;19.30;99.90;;;;;;4181512;28;20383;-58
2023/07/20 03:56:49;;;;;;;5.13;2.22;;;19.30;99.90;;;;;;4182006;28;20110;-57
2023/07/20 03:59:10;;;;;;;6.63;2.85;;;19.30;99.90;;;;;;4181837;28;20108;-58
2023/07/20 04:01:30;;;;;;;5.80;2.85;;;19.40;99.90;;;;;;4182116;28;20287;-58
2023/07/20 04:03:50;;;;;;;9.57;2.30;;;19.30;99.90;;;;;;4178603;28;20056;-58
2023/07/20 04:06:10;;;;;;;4.60;2.70;;;19.10;99.90;;;;;;4182523;28;20052;-58
2023/07/20 04:08:30;;;;;;;3.72;2.50;;;19.20;99.90;;;;;;4182171;28;20056;-58
2023/07/20 04:10:50;;;;;;;3.75;2.45;;;19.40;99.90;;;;;;4184884;28;20040;-58
2023/07/20 04:13:11;;;;;;;7.72;3.25;;;19.40;99.90;;;;;;4184053;28;20083;-57
2023/07/20 04:15:32;;;;;;;5.72;3.20;;;19.50;99.90;;;;;;4184114;28;20152;-57
2023/07/20 04:17:51;;;;;;;5.00;2.97;;;19.50;99.90;;;;;;4181828;28;20044;-58
2023/07/20 04:20:12;;;;;;;2.83;2.72;;;19.50;99.90;;;;;;4181928;28;20048;-58
2023/07/20 04:22:32;;;;;;;3.67;3.22;;;19.10;99.90;;;;;;4182113;28;20056;-58
2023/07/20 04:24:52;;;;;;;5.28;3.58;;;18.90;99.90;;;;;;4181757;28;20052;-58
2023/07/20 04:27:12;;;;;;;4.40;2.65;;;19.10;99.90;;;;;;4179654;28;20052;-58
2023/07/20 04:29:32;;;;;;;6.55;3.33;;;19.30;99.90;;;;;;4180268;28;20252;-57
2023/07/20 04:31:52;;;;;;;5.13;3.55;;;19.30;99.90;;;;;;4182537;28;20048;-57
2023/07/20 04:34:12;;;;;;;4.68;2.85;;;19.10;99.90;;;;;;4183655;28;20052;-57
2023/07/20 04:36:32;;;;;;;5.78;2.83;;;19.00;99.90;;;;;;4183126;28;20122;-57
2023/07/20 04:38:53;;;;;;;16.10;4.10;;;19.00;99.90;;;;;;4183011;28;20279;-58
2023/07/20 04:41:12;;;;;;;4.53;2.50;;;18.90;99.90;;;;;;4182129;28;20263;-57
2023/07/20 04:43:33;;;;;;;4.95;2.97;;;18.90;99.90;;;;;;4186912;28;20048;-57
2023/07/20 04:45:52;;;;;;;9.00;3.40;;;18.90;99.90;;;;;;4182645;28;20067;-57
2023/07/20 04:48:15;;;;;;;4.53;3.67;;;18.80;99.90;;;;;;4185031;28;20109;-57
2023/07/20 04:50:35;;;;;;;5.55;3.28;;;18.80;99.90;;;;;;4185393;28;20055;-57
2023/07/20 04:52:55;;;;;;;4.82;3.45;;;18.80;99.90;;;;;;4185063;28;20053;-57
2023/07/20 04:55:16;;;;;;;6.10;2.95;;;18.80;99.90;;;;;;4184807;28;20101;-57
2023/07/20 04:57:36;;;;;;;4.82;2.88;;;18.90;99.90;;;;;;4181962;28;20248;-57
2023/07/20 04:59:56;;;;;;;9.43;3.53;;;19.10;99.90;;;;;;4181187;28;20398;-57
2023/07/20 05:02:16;;;;;;;4.88;3.30;;;19.30;99.90;;;;;;4181828;28;20048;-58
2023/07/20 05:04:36;;;;;;;6.03;2.90;;;19.30;99.90;;;;;;4181523;28;20053;-57
2023/07/20 05:06:58;;;;;;;;;;;19.40;99.90;;;;;;4175952;28;20358;-58
2023/07/20 05:09:18;;;;;;;18.52;2.97;;;19.50;99.90;;;;;;4181838;28;19953;-58
2023/07/20 05:11:38;;;;;;;7.82;3.15;;;19.50;99.90;;;;;;4182482;28;20076;-58
2023/07/20 05:13:59;;;;;;;5.80;3.20;;;19.60;99.90;;;;;;4182496;28;20076;-57
2023/07/20 05:16:18;;;;;;;10.85;4.18;;;19.60;99.90;;;;;;4168759;28;20092;-57
2023/07/20 05:18:39;;;;;;;9.52;2.78;;;19.40;99.90;;;;;;4183623;28;20052;-57
2023/07/20 05:20:58;;;;;;;6.78;3.38;;;19.40;99.90;;;;;;4185055;28;20263;-57
2023/07/20 05:23:22;;;;;;;9.38;4.35;;;19.40;99.90;;;;;;4185686;28;20067;-57
2023/07/20 05:25:42;;;;;;;8.80;2.83;;;19.50;99.90;;;;;;4185772;28;20040;-57
2023/07/20 05:28:02;;;;;;;10.90;3.50;;;19.50;99.90;;;;;;4187265;28;20402;-57
2023/07/20 05:30:22;;;;;;;13.32;3.38;;;19.60;99.90;;;;;;4183408;28;20114;-57
2023/07/20 05:32:45;;;;;;;10.73;3.47;;;19.60;99.90;;;;;;4181610;28;20044;-57
2023/07/20 05:35:05;;;;;;;3.97;2.80;;;19.80;99.90;;;;;;4183982;28;20446;-58
2023/07/20 05:37:26;;;;;;;10.93;2.63;;;20.00;99.90;;;;;;4184520;28;20090;-57
2023/07/20 05:39:46;;;;;;;3.75;2.97;;;20.00;99.90;;;;;;4184283;28;20059;-57
2023/07/20 05:42:06;;;;;;;9.38;3.05;;;20.10;99.90;;;;;;4184570;28;20043;-58
2023/07/20 05:44:26;;;;;;;4.97;2.45;;;20.10;99.90;;;;;;4185099;28;20091;-57
2023/07/20 05:46:46;;;;;;;8.45;3.28;;;20.10;99.90;;;;;;4184172;28;20056;-57
2023/07/20 05:49:18;;;;;;;4.93;2.45;;;20.10;99.90;;;;;;4185002;28;20083;-57
2023/07/20 05:51:38;;;;;;;7.43;2.58;;;20.10;99.90;;;;;;4186005;28;20048;-57
2023/07/20 05:53:58;;;;;;;10.75;3.28;;;20.10;99.90;;;;;;4186272;28;20056;-57
2023/07/20 05:56:18;;;;;;;4.63;2.72;;;20.40;99.90;;;;;;4185951;28;20075;-57
2023/07/20 05:58:38;;;;;;;7.15;3.03;;;20.50;99.90;;;;;;4186795;28;20236;-58
2023/07/20 06:00:58;;;;;;;2.42;2.00;;;20.70;99.90;;;;;;4183680;28;20051;-57
2023/07/20 06:03:18;;;;;;;3.92;3.30;;;20.90;99.90;;;;;;4183935;28;20048;-57
2023/07/20 06:05:38;;;;;;;5.45;2.60;;;21.10;99.90;;;;;;4184366;28;20040;-57
2023/07/20 06:08:00;;;;;;;7.45;3.35;;;21.10;99.90;;;;;;4184319;28;20104;-57
2023/07/20 06:10:20;;;;;;;6.93;2.47;;;21.40;99.90;;;;;;4179386;28;20376;-57
2023/07/20 06:12:40;;;;;;;7.22;3.00;;;21.50;99.90;;;;;;4178245;28;20048;-57
2023/07/20 06:15:05;;;;;;;9.82;3.08;;;21.50;99.90;;;;;;4183125;28;20076;-57
2023/07/20 06:17:25;;;;;;;5.63;2.72;;;21.70;99.90;;;;;;4185057;28;20119;-57
2023/07/20 06:19:45;;;;;;;15.13;2.97;;;22.00;99.90;;;;;;4185767;28;20048;-58
2023/07/20 06:22:05;;;;;;;5.43;2.10;;;22.10;99.90;;;;;;4186137;28;20087;-57
2023/07/20 06:24:25;;;;;;;5.68;2.70;;;22.20;99.90;;;;;;4185699;28;20399;-57
2023/07/20 06:26:45;;;;;;;7.90;3.15;;;22.50;99.90;;;;;;4187135;28;20076;-57
2023/07/20 06:29:11;;;;;;;4.78;3.00;;;22.50;99.90;;;;;;4186179;28;20083;-57
2023/07/20 06:31:33;;;;;;;5.63;2.35;;;22.80;99.90;;;;;;4186769;28;20048;-58
2023/07/20 06:33:53;;;;;;;6.17;3.43;;;23.00;99.90;;;;;;4186701;28;20079;-57
2023/07/20 06:36:17;;;;;;;5.00;1.80;;;23.40;99.90;;;;;;4187957;28;20083;-57
2023/07/20 06:38:37;;;;;;;4.25;1.88;;;23.60;99.90;;;;;;4186965;28;20044;-58
2023/07/20 06:40:58;;;;;;;6.90;2.42;;;23.60;99.90;;;;;;4182067;28;20087;-57
2023/07/20 06:43:38;;;;;;;6.32;3.00;;;23.50;99.90;;;;;;4183564;28;20275;-57
2023/07/20 06:46:00;;;;;;;;;;;23.70;99.90;;;;;;4185891;28;20079;-57
2023/07/20 06:48:21;;;;;;;6.05;2.17;;;23.70;99.90;;;;;;4183538;28;19955;-58
2023/07/20 06:50:43;;;;;;;9.82;2.90;;;23.80;99.90;;;;;;4182819;28;20721;-58
2023/07/20 06:53:05;;;;;;;7.05;1.80;;;23.80;99.90;;;;;;4183492;28;20065;-58
2023/07/20 06:55:26;;;;;;;8.75;3.15;;;23.90;99.90;;;;;;4184276;28;20055;-58
2023/07/20 06:57:46;;;;;;;2.75;2.10;;;24.10;99.90;;;;;;4186714;28;20052;-58
2023/07/20 07:00:09;;;;;;;;;;;24.40;99.90;;;;;;4185976;28;20087;-58
2023/07/20 07:02:29;;;;;;;7.78;2.72;;;24.40;99.90;;;;;;4186072;28;19924;-58
2023/07/20 07:04:49;;;;;;;8.45;2.13;;;24.50;99.90;;;;;;4184074;28;20104;-58
2023/07/20 07:07:09;;;;;;;5.68;3.25;;;24.70;99.90;;;;;;4183397;28;20140;-58
2023/07/20 07:09:29;;;;;;;9.05;2.22;;;24.80;99.90;;;;;;4183769;28;20398;-58
2023/07/20 07:11:50;;;;;;;5.80;1.95;;;25.00;99.90;;;;;;4182811;28;20076;-58
2023/07/20 07:14:10;;;;;;;13.70;2.40;;;25.20;99.90;;;;;;4179650;28;20245;-57
2023/07/20 07:16:30;;;;;;;4.63;1.90;;;25.20;99.90;;;;;;4181450;28;20040;-58
2023/07/20 07:18:51;;;;;;;4.50;1.70;;;25.50;99.90;;;;;;4182938;28;20291;-58
2023/07/20 07:21:11;;;;;;;9.15;2.63;;;25.80;99.90;;;;;;4184139;28;20076;-58
2023/07/20 07:23:31;;;;;;;11.23;3.58;;;26.10;99.90;;;;;;4185246;28;20397;-58
2023/07/20 07:25:51;;;;;;;5.07;1.25;;;26.20;99.90;;;;;;4184918;28;20036;-58
2023/07/20 07:28:11;;;;;;;11.85;3.42;;;26.40;99.90;;;;;;4183252;28;20273;-58
2023/07/20 07:30:31;;;;;;;7.88;3.35;;;26.70;99.90;;;;;;4185289;28;20087;-58
2023/07/20 07:32:54;;;;;;;;;;;26.60;99.90;;;;;;4185765;28;20128;-58
2023/07/20 07:35:14;;;;;;;8.07;2.70;;;26.30;99.90;;;;;;4185111;28;19923;-58
2023/07/20 07:37:34;;;;;;;9.30;2.17;;;26.70;99.90;;;;;;4186114;28;20439;-58
2023/07/20 07:40:08;;;;;;;10.85;2.55;;;26.90;99.90;;;;;;4185335;28;20112;-59
2023/07/20 07:42:29;;;;;;;5.80;1.80;;;27.10;99.90;;;;;;4186494;28;20047;-57
2023/07/20 07:44:49;;;;;;;6.57;2.63;;;26.90;99.90;;;;;;4182829;28;20067;-58
2023/07/20 07:47:09;;;;;;;7.97;2.83;;;27.40;99.90;;;;;;4179628;28;20159;-58
2023/07/20 07:49:31;;;;;;;6.68;1.73;;;27.50;99.90;;;;;;4181569;28;20059;-58
2023/07/20 07:51:51;;;;;;;8.77;1.40;;;27.60;99.90;;;;;;4181926;28;20052;-58
2023/07/20 07:54:11;;;;;;;7.43;2.15;;;27.70;99.90;;;;;;4181620;28;20048;-58
2023/07/20 07:56:32;;;;;;;9.70;2.10;;;27.70;99.90;;;;;;4177743;28;20067;-58
2023/07/20 07:58:52;;;;;;;3.42;1.60;;;28.20;99.90;;;;;;4182474;28;20129;-58
2023/07/20 08:01:12;;;;;;;7.90;2.28;;;28.10;99.90;;;;;;4181635;28;20075;-58
2023/07/20 08:03:32;;;;;;;8.82;2.13;;;28.40;99.90;;;;;;4187577;28;20044;-58
2023/07/20 08:05:56;;;;;;;8.05;2.03;;;28.50;99.90;;;;;;4184522;28;20048;-55
2023/07/20 08:08:17;;;;;;;2.55;1.85;;;28.60;99.90;;;;;;4185326;28;20048;-55
2023/07/20 08:10:37;;;;;;;9.15;2.20;;;28.40;99.90;;;;;;4183031;28;20410;-56
2023/07/20 08:12:57;;;;;;;5.30;1.73;;;28.70;99.90;;;;;;4182859;28;20051;-56
2023/07/20 08:15:17;;;;;;;8.02;2.20;;;29.10;99.90;;;;;;4182141;28;20048;-56
2023/07/20 08:17:37;;;;;;;9.57;2.42;;;29.50;99.90;;;;;;4180597;28;20056;-56
2023/07/20 08:19:58;;;;;;;9.60;1.88;;;29.90;99.80;;;;;;4181570;28;20055;-56
2023/07/20 08:22:19;;;;;;;6.13;2.38;;;30.00;99.00;;;;;;4181862;28;20390;-56
2023/07/20 08:24:40;;;;;;;7.50;1.83;;;30.10;98.80;;;;;;4182547;28;20455;-56
2023/07/20 08:27:00;;;;;;;8.57;1.85;;;29.70;99.20;;;;;;4184017;28;20227;-55
2023/07/20 08:29:20;;;;;;;6.50;2.05;;;29.50;98.60;;;;;;4182920;28;20087;-56
2023/07/20 08:31:40;;;;;;;6.10;1.52;;;29.60;98.70;;;;;;4184041;28;20094;-55
2023/07/20 08:34:00;;;;;;;7.88;1.88;;;29.90;99.10;;;;;;4182282;28;20403;-56
2023/07/20 08:36:21;;;;;;;6.78;2.28;;;29.80;98.80;;;;;;4186264;28;20082;-56
2023/07/20 08:38:42;;;;;;;8.75;2.35;;;29.60;98.20;;;;;;4183237;28;20239;-56
2023/07/20 08:41:02;;;;;;;13.90;2.22;;;29.80;99.60;;;;;;4184544;28;20142;-56
2023/07/20 08:43:26;;;;;;;8.63;1.60;;;30.10;98.10;;;;;;4186004;28;20378;-56
2023/07/20 08:45:48;;;;;;;8.82;1.95;;;30.30;98.70;;;;;;4186205;28;20052;-55
2023/07/20 08:48:09;;;;;;;9.27;2.22;;;30.20;98.00;;;;;;4184423;28;20048;-56
2023/07/20 08:50:31;;;;;;;5.00;2.17;;;30.20;99.10;;;;;;4179985;28;20036;-56
2023/07/20 08:52:53;;;;;;;9.38;2.65;;;30.80;99.30;;;;;;4181166;28;20044;-55
2023/07/20 08:55:13;;;;;;;9.93;2.35;;;30.70;97.00;;;;;;4179973;28;20048;-56
2023/07/20 08:57:35;;;;;;;10.32;2.60;;;30.80;98.10;;;;;;4176640;28;20044;-56
2023/07/20 08:59:56;;;;;;;7.25;1.52;;;30.80;97.90;;;;;;4184005;28;20068;-55
2023/07/20 09:02:17;;;;;;;10.45;1.60;;;31.00;97.80;;;;;;4176790;28;20091;-56
2023/07/20 09:04:39;;;;;;;7.18;1.95;;;31.20;97.40;;;;;;4180815;28;20048;-55
2023/07/20 09:07:00;;;;;;;5.65;1.73;;;31.00;96.50;;;;;;4184765;28;20044;-55
2023/07/20 09:09:19;;;;;;;8.05;1.73;;;31.00;98.50;;;;;;4187390;28;20088;-56
2023/07/20 09:11:40;;;;;;;4.10;1.75;;;31.10;96.70;;;;;;4185672;28;20044;-55
2023/07/20 09:14:08;;;;;;;6.00;1.63;;;31.40;97.50;;;;;;4182660;28;20044;-56
2023/07/20 09:16:29;;;;;;;5.60;1.58;;;31.20;97.00;;;;;;4182318;28;20087;-56
2023/07/20 09:18:50;;;;;;;4.07;1.85;;;31.20;95.20;;;;;;4181186;28;20091;-55
2023/07/20 09:21:10;;;;;;;6.35;1.30;;;31.40;97.00;;;;;;4181776;28;20075;-55
2023/07/20 09:23:34;;;;;;;5.70;2.40;;;31.60;96.40;;;;;;4180320;28;20059;-56
2023/07/20 09:25:54;;;;;;;6.47;1.67;;;31.70;97.20;;;;;;4179840;28;20047;-56
2023/07/20 09:28:14;;;;;;;6.10;1.50;;;32.10;97.20;;;;;;4180365;28;20051;-56
2023/07/20 09:30:34;;;;;;;4.65;1.85;;;31.90;96.00;;;;;;4182502;28;20401;-56
2023/07/20 09:32:55;;;;;;;5.63;2.42;;;31.90;96.50;;;;;;4183158;28;20049;-56
2023/07/20 09:35:16;;;;;;;6.90;2.35;;;32.10;95.40;;;;;;4182733;28;20048;-56
2023/07/20 09:37:39;;;;;;;4.03;1.58;;;32.40;95.50;;;;;;4182820;28;20067;-55
2023/07/20 09:39:59;;;;;;;7.00;1.50;;;32.50;94.70;;;;;;4181386;28;20098;-56
2023/07/20 09:42:24;;;;;;;5.88;1.55;;;32.40;93.70;;;;;;4184532;28;20088;-56
2023/07/20 09:44:48;;;;;;;5.03;2.13;;;32.50;93.60;;;;;;4183870;28;20079;-55
2023/07/20 09:47:09;;;;;;;3.15;1.45;;;32.70;93.60;;;;;;4185006;28;20039;-56
2023/07/20 09:49:29;;;;;;;6.50;2.53;;;32.40;92.90;;;;;;4184221;28;20287;-56
2023/07/20 09:51:53;;;;;;;7.07;1.58;;;32.70;93.30;;;;;;4184499;28;20333;-56
2023/07/20 09:54:14;;;;;;;2.88;2.00;;;32.50;92.30;;;;;;4182106;28;20088;-56
2023/07/20 09:56:36;;;;;;;7.40;2.20;;;32.30;93.20;;;;;;4180146;28;20419;-56
2023/07/20 09:58:56;;;;;;;6.85;2.20;;;32.60;93.70;;;;;;4180548;28;20402;-56
2023/07/20 10:01:21;;;;;;;2.05;1.33;;;32.50;92.60;;;;;;4177247;28;20036;-56
2023/07/20 10:03:47;;;;;;;4.38;2.03;;;32.60;92.00;;;;;;4184437;28;20044;-55
2023/07/20 10:06:10;;;;;;;7.70;1.87;;;32.90;92.70;;;;;;4181358;28;20155;-56
2023/07/20 10:08:31;;;;;;;3.70;1.90;;;32.80;92.40;;;;;;4186129;28;20394;-56
2023/07/20 10:10:54;;;;;;;4.20;1.27;;;32.80;92.60;;;;;;4186045;28;20048;-56
2023/07/20 10:13:21;;;;;;;4.57;1.80;;;32.50;93.00;;;;;;4185557;28;20382;-56
2023/07/20 10:15:46;;;;;;;2.50;1.25;;;32.80;92.70;;;;;;4184445;28;20044;-56
2023/07/20 10:18:23;;;;;;;2.22;1.10;;;32.70;92.10;;;;;;4184683;28;20060;-56
2023/07/20 10:20:46;;;;;;;2.38;1.83;;;32.70;92.70;;;;;;4183103;28;20051;-56
2023/07/20 10:23:09;;;;;;;6.22;1.50;;;33.00;93.00;;;;;;4184389;28;20122;-56
2023/07/20 10:25:31;;;;;;;4.28;1.75;;;33.20;91.90;;;;;;4185337;28;20444;-56
2023/07/20 10:27:51;;;;;;;3.93;1.60;;;32.70;91.90;;;;;;4183787;28;20049;-55
2023/07/20 10:30:12;;;;;;;6.82;1.52;;;33.10;92.60;;;;;;4183265;28;20152;-56
2023/07/20 10:32:32;;;;;;;7.82;2.97;;;32.80;92.10;;;;;;4184827;28;20112;-56
2023/07/20 10:34:55;;;;;;;8.15;2.83;;;33.40;91.40;;;;;;4184945;28;20083;-55
2023/07/20 10:37:50;;;;;;;6.75;1.33;;;33.80;92.40;;;;;;4184466;28;20075;-55
2023/07/20 10:40:28;;;;;;;4.22;1.63;;;34.00;92.10;;;;;;4184468;28;20084;-56
2023/07/20 10:42:48;;;;;;;4.90;1.40;;;34.00;90.90;;;;;;4182714;28;20142;-55
2023/07/20 10:45:08;;;;;;;9.75;1.75;;;32.80;91.60;;;;;;4183444;28;20240;-55
2023/07/20 10:47:28;;;;;;;6.22;1.98;;;32.90;92.60;;;;;;4184364;28;20060;-56
2023/07/20 10:50:00;;;;;;;3.60;1.52;;;32.80;91.40;;;;;;4186260;28;20109;-55
2023/07/20 10:52:20;;;;;;;6.28;1.88;;;33.60;91.30;;;;;;4186467;28;20267;-56
2023/07/20 10:54:49;;;;;;;6.50;1.75;;;34.20;91.20;;;;;;4186671;28;20091;-56
2023/07/20 10:57:30;;;;;;;5.97;1.42;;;34.30;91.40;;;;;;4185805;28;20044;-56
2023/07/20 10:59:50;;;;;;;8.25;1.80;;;34.50;92.70;;;;;;4183608;28;20300;-56
2023/07/20 11:02:10;;;;;;;5.32;1.92;;;34.70;90.10;;;;;;4182119;28;20135;-56
2023/07/20 11:04:44;;;;;;;5.85;1.50;;;34.80;89.10;;;;;;4180743;28;20109;-55
2023/07/20 11:07:04;;;;;;;6.05;1.63;;;34.30;87.90;;;;;;4179730;28;20107;-56
2023/07/20 11:09:25;;;;;;;5.90;2.03;;;34.10;88.20;;;;;;4178305;28;20063;-56
2023/07/20 11:11:47;;;;;;;8.07;1.50;;;34.00;89.40;;;;;;4184291;28;20083;-56
2023/07/20 11:14:22;;;;;;;6.32;1.48;;;33.80;90.90;;;;;;4182976;28;20078;-56
2023/07/20 11:16:47;;;;;;;6.60;2.80;;;34.10;91.00;;;;;;4184098;28;20059;-56
2023/07/20 11:19:23;;;;;;;7.47;1.52;;;34.40;91.40;;;;;;4184154;28;20087;-56
2023/07/20 11:21:54;;;;;;;4.10;1.80;;;34.40;88.60;;;;;;4184692;28;20063;-56
2023/07/20 11:24:23;;;;;;;5.40;1.40;;;34.20;89.90;;;;;;4185184;28;20051;-56
2023/07/20 11:26:45;;;;;;;3.92;1.52;;;34.30;89.80;;;;;;4184363;28;20079;-57
2023/07/20 11:29:05;;;;;;;;;;;34.00;89.30;;;;;;4187729;28;20248;-56
2023/07/20 11:31:34;;;;;;;5.30;1.42;;;33.80;87.40;;;;;;4185060;28;19975;-57
2023/07/20 11:33:54;;;;;;;7.53;2.20;;;33.50;88.50;;;;;;4182817;28;20087;-56
2023/07/20 11:36:15;;;;;;;5.53;1.00;;;33.50;88.20;;;;;;4182471;28;20052;-56
2023/07/20 11:38:42;;;;;;;8.43;1.80;;;34.10;89.00;;;;;;4183010;28;20334;-56
2023/07/20 11:41:05;;;;;;;6.82;1.10;;;34.20;89.00;;;;;;4182679;28;20047;-57
2023/07/20 11:43:26;;;;;;;6.88;1.13;;;34.60;89.10;;;;;;4183107;28;20052;-58
2023/07/20 11:45:46;;;;;;;5.63;1.35;;;34.80;88.10;;;;;;4182864;28;20134;-58
2023/07/20 11:48:06;;;;;;;5.55;1.20;;;35.40;86.70;;;;;;4181414;28;20068;-58
2023/07/20 11:50:26;;;;;;;4.97;1.25;;;35.50;86.70;;;;;;4185340;28;20071;-58
2023/07/20 11:52:46;;;;;;;7.65;1.70;;;35.20;86.30;;;;;;4184442;28;20228;-58
2023/07/20 11:55:07;;;;;;;3.45;1.00;;;35.30;86.80;;;;;;4184330;28;20052;-58
2023/07/20 11:57:27;;;;;;;4.82;1.90;;;34.90;85.20;;;;;;4185378;28;20091;-57
2023/07/20 11:59:58;;;;;;;6.13;1.45;;;34.60;86.50;;;;;;4183846;28;20116;-58
2023/07/20 12:02:19;;;;;;;3.80;1.15;;;34.50;84.90;;;;;;4183528;28;20044;-58
2023/07/20 12:04:39;;;;;;;3.55;1.10;;;34.70;85.90;;;;;;4182741;28;20049;-58
2023/07/20 12:06:59;;;;;;;3.25;1.10;;;35.10;88.00;;;;;;4181889;28;20055;-57
2023/07/20 12:09:20;;;;;;;3.97;1.35;;;35.50;84.40;;;;;;4181981;28;20043;-58
2023/07/20 12:11:40;;;;;;;4.72;1.30;;;35.10;82.80;;;;;;4181056;28;20048;-57
2023/07/20 12:14:00;;;;;;;3.00;1.58;;;34.70;84.00;;;;;;4180735;28;20087;-58
2023/07/20 12:16:40;;;;;;;5.75;1.40;;;34.30;84.70;;;;;;4182164;28;20248;-58
2023/07/20 12:19:11;;;;;;;3.13;1.30;;;34.40;85.80;;;;;;4182586;28;20052;-57